Time;durP1;ratioP1;P1;durP2;ratioP2;P2;SDS_P1;SDS_P2;PMS_P1;PMS_P2;Temp;Humidity;BMP_temperature;BMP_pressure;BME280_temperature;BME280_humidity;BME280_pressure;Samples;Min_cycle;Max_cycle;Signal;HPM_P1;HPM_P2
2023/07/20 00:04:49;;;;;;;4.50;2.50;;;;;;;18.47;66.02;98106.92;225825;1280;22544;-72
2023/07/20 00:10:38;;;;;;;6.00;2.50;;;;;;;18.46;66.58;98115.41;225849;1280;23419;-72
2023/07/20 00:16:01;;;;;;;3.60;2.40;;;;;;;18.47;67.02;98124.47;225849;1280;22656;-72
2023/07/20 00:21:12;;;;;;;3.50;2.40;;;;;;;18.43;67.57;98128.48;225852;1276;22583;-72
2023/07/20 00:26:41;;;;;;;3.10;2.50;;;;;;;18.32;68.02;98139.91;225790;1278;22608;-73
2023/07/20 00:32:07;;;;;;;3.40;2.60;;;;;;;18.18;68.63;98144.58;225848;1276;22540;-73
2023/07/20 00:37:33;;;;;;;3.40;2.30;;;;;;;18.08;69.29;98150.85;225854;1280;22536;-73
2023/07/20 00:43:34;;;;;;;3.30;2.60;;;;;;;17.97;69.49;98147.79;225858;1280;22574;-73
2023/07/20 00:48:49;;;;;;;4.80;2.90;;;;;;;17.86;70.17;98150.49;225852;1280;23294;-73
2023/07/20 00:54:01;;;;;;;4.20;3.20;;;;;;;17.73;70.65;98137.41;225820;1280;22583;-72
2023/07/20 00:59:14;;;;;;;4.80;2.90;;;;;;;17.63;71.18;98122.48;225822;1271;22545;-73
2023/07/20 01:04:34;;;;;;;4.80;3.00;;;;;;;17.59;71.40;98113.11;225726;1280;22586;-73
2023/07/20 01:09:52;;;;;;;4.10;2.60;;;;;;;17.54;71.67;98105.41;225796;1280;22559;-73
2023/07/20 01:15:38;;;;;;;4.70;2.70;;;;;;;17.48;72.07;98111.71;225836;1280;25641;-72
2023/07/20 01:21:06;;;;;;;3.70;3.00;;;;;;;17.41;72.53;98115.30;225820;1278;22544;-73
2023/07/20 01:26:43;;;;;;;5.80;3.30;;;;;;;17.36;72.64;98103.27;225891;1280;22559;-73
2023/07/20 01:31:53;;;;;;;3.20;2.90;;;;;;;17.31;72.54;98106.84;225821;1276;25256;-73
2023/07/20 01:37:01;;;;;;;4.20;3.00;;;;;;;17.30;72.77;98124.45;225816;1277;22527;-73
2023/07/20 01:42:53;;;;;;;5.50;3.40;;;;;;;17.31;72.79;98124.24;225829;1280;22524;-73
2023/07/20 01:48:16;;;;;;;4.30;2.80;;;;;;;17.31;72.71;98133.91;225837;1280;22544;-72
2023/07/20 01:53:55;;;;;;;;;;;;;;;;;;;;;
2023/07/20 02:00:21;;;;;;;5.80;3.20;;;;;;;17.28;73.18;98136.55;225832;1260;22556;-73
2023/07/20 02:06:35;;;;;;;3.20;2.40;;;;;;;17.07;73.44;98130.23;225892;1280;23330;-73
2023/07/20 02:11:52;;;;;;;3.00;2.20;;;;;;;16.93;73.38;98151.16;225853;1276;22649;-72
2023/07/20 02:17:11;;;;;;;4.00;2.30;;;;;;;16.88;73.59;98162.56;225871;1280;22540;-73
2023/07/20 02:23:21;;;;;;;;;;;;;;;;;;;;;
2023/07/20 02:29:36;;;;;;;3.60;2.40;;;;;;;16.74;73.97;98170.09;225887;1280;22570;-73
2023/07/20 02:35:28;;;;;;;6.40;2.00;;;;;;;16.67;73.95;98168.29;225806;1280;22549;-72
2023/07/20 02:40:42;;;;;;;3.60;2.10;;;;;;;16.56;74.11;98160.80;225854;1276;22536;-73
2023/07/20 02:46:34;;;;;;;4.40;2.20;;;;;;;16.44;74.26;98153.81;225825;1280;22535;-73
2023/07/20 02:51:52;;;;;;;3.40;2.00;;;;;;;16.31;74.81;98147.45;225893;1276;22536;-72
2023/07/20 02:57:04;;;;;;;4.00;2.20;;;;;;;16.17;74.81;98162.30;225865;1280;22546;-72
2023/07/20 03:03:18;;;;;;;2.60;2.20;;;;;;;16.05;75.19;98173.84;225872;1280;22567;-72
2023/07/20 03:08:47;;;;;;;3.30;2.40;;;;;;;15.97;75.39;98184.02;225805;1280;22592;-73
2023/07/20 03:14:17;;;;;;;3.10;2.10;;;;;;;15.92;75.75;98192.23;225875;1280;22536;-73
2023/07/20 03:20:19;;;;;;;;;;;;;;;;;;;;;
2023/07/20 03:26:25;;;;;;;2.30;2.10;;;;;;;15.95;76.48;98215.38;225827;1280;22556;-73
2023/07/20 03:32:13;;;;;;;2.90;2.40;;;;;;;16.00;76.55;98202.65;225852;1280;22563;-73
2023/07/20 03:37:36;;;;;;;4.50;2.20;;;;;;;16.04;76.64;98196.69;225915;1275;25709;-74
2023/07/20 03:55:31;;;;;;;2.50;2.00;;;;;;;16.18;76.84;98207.30;225913;1280;22590;-73
2023/07/20 04:00:58;;;;;;;2.60;2.00;;;;;;;16.18;76.73;98202.55;225826;1263;22555;-73
2023/07/20 04:06:17;;;;;;;;;;;;;;;;;;;;;
2023/07/20 04:11:48;;;;;;;3.50;2.20;;;;;;;16.22;76.46;98206.26;225887;1280;22536;-73
2023/07/20 04:16:51;;;;;;;2.80;2.50;;;;;;;16.32;76.75;98200.58;225919;1277;22546;-73
2023/07/20 04:22:21;;;;;;;2.20;1.90;;;;;;;16.40;76.57;98207.48;225853;1280;22556;-73
2023/07/20 04:27:58;;;;;;;2.50;1.70;;;;;;;16.45;76.40;98218.33;225839;1280;22551;-73
2023/07/20 04:33:39;;;;;;;;;;;;;;;;;;;;;
2023/07/20 04:39:14;;;;;;;2.30;2.00;;;;;;;16.54;76.27;98240.73;225923;1280;23282;-73
2023/07/20 04:44:59;;;;;;;2.60;2.00;;;;;;;16.65;76.36;98241.98;225906;1280;22543;-73
2023/07/20 04:50:51;;;;;;;3.70;2.30;;;;;;;16.76;76.18;98246.41;225937;1276;22536;-73
2023/07/20 04:56:05;;;;;;;3.70;2.70;;;;;;;16.91;76.17;98252.16;225912;1280;24298;-73
2023/07/20 05:01:29;;;;;;;2.20;2.00;;;;;;;17.14;76.14;98257.16;225790;1278;22578;-73
2023/07/20 05:07:34;;;;;;;2.90;1.90;;;;;;;17.42;75.93;98257.08;225878;1280;22536;-73
2023/07/20 05:20:20;;;;;;;;;;;;;;;;;;;;;
2023/07/20 05:26:44;;;;;;;3.70;1.80;;;;;;;17.85;74.34;98272.09;225953;1280;24216;-73
2023/07/20 05:32:53;;;;;;;;;;;;;;;;;;;;;
2023/07/20 05:39:15;;;;;;;;;;;;;;;;;;;;;
2023/07/20 05:44:25;;;;;;;3.50;2.30;;;;;;;18.14;73.97;98273.73;225852;1274;22590;-71
2023/07/20 05:49:32;;;;;;;2.20;1.40;;;;;;;18.26;73.72;98283.83;225677;1265;22533;-71
2023/07/20 05:54:43;;;;;;;2.20;1.50;;;;;;;18.48;73.56;98293.99;225680;1280;24373;-71
2023/07/20 05:59:57;;;;;;;2.20;1.60;;;;;;;18.71;73.22;98288.85;225606;1275;22546;-71
2023/07/20 06:04:59;;;;;;;1.60;1.30;;;;;;;18.91;72.92;98291.52;225318;1259;22527;-71
2023/07/20 06:10:02;;;;;;;1.40;1.30;;;;;;;19.03;72.33;98282.08;225449;1273;22566;-71
2023/07/20 06:15:05;;;;;;;2.50;1.40;;;;;;;19.18;71.98;98279.38;225539;1262;22570;-71
2023/07/20 06:20:17;;;;;;;2.20;1.30;;;;;;;19.30;71.76;98286.27;225406;1275;176257;-71
2023/07/20 06:25:27;;;;;;;2.10;1.30;;;;;;;19.59;71.41;98282.75;225448;1268;24514;-71
2023/07/20 06:31:03;;;;;;;1.90;1.10;;;;;;;19.79;70.56;98291.83;225379;1279;22564;-72
2023/07/20 06:36:06;;;;;;;1.30;0.90;;;;;;;19.93;70.18;98290.41;225331;1262;25739;-72
2023/07/20 06:41:29;;;;;;;0.90;0.90;;;;;;;20.10;69.58;98297.80;225475;1276;22533;-72
2023/07/20 06:46:39;;;;;;;1.60;1.10;;;;;;;20.21;69.00;98304.06;225642;1268;22678;-72
2023/07/20 06:51:44;;;;;;;1.50;1.30;;;;;;;20.29;68.84;98306.63;225543;1262;22569;-72
2023/07/20 06:57:11;;;;;;;1.80;1.30;;;;;;;20.33;68.27;98307.92;225702;1275;22583;-71
2023/07/20 07:02:23;;;;;;;1.20;1.10;;;;;;;20.34;68.21;98302.41;225633;1269;22544;-72
2023/07/20 07:07:25;;;;;;;1.20;1.10;;;;;;;20.40;67.98;98300.40;225659;1265;22609;-72
2023/07/20 07:12:41;;;;;;;2.20;1.20;;;;;;;20.63;67.84;98296.23;225816;1265;22644;-72
2023/07/20 07:18:02;;;;;;;2.70;1.20;;;;;;;20.73;67.41;98299.29;225649;1265;22555;-72
2023/07/20 07:23:04;;;;;;;2.70;1.40;;;;;;;20.80;67.06;98297.30;225641;1258;22549;-72
2023/07/20 07:28:21;;;;;;;2.00;1.20;;;;;;;20.96;67.08;98298.84;225504;1277;22560;-73
2023/07/20 07:33:40;;;;;;;2.70;1.00;;;;;;;21.24;66.53;98307.20;225590;1273;22561;-72
2023/07/20 07:38:42;;;;;;;1.80;1.50;;;;;;;21.31;65.58;98308.02;225619;1272;24228;-72
2023/07/20 07:43:48;;;;;;;2.00;1.50;;;;;;;21.19;65.28;98313.54;225682;1272;22570;-72
2023/07/20 07:48:55;;;;;;;2.00;1.90;;;;;;;21.13;65.23;98308.31;225496;1274;24094;-73
2023/07/20 07:54:12;;;;;;;2.40;2.20;;;;;;;21.16;65.13;98315.89;225502;1264;23270;-72
2023/07/20 07:59:14;;;;;;;3.30;3.00;;;;;;;21.38;65.10;98317.16;225385;1259;22554;-72
2023/07/20 08:04:25;;;;;;;3.50;3.00;;;;;;;21.49;64.72;98324.27;225255;1278;24528;-72
2023/07/20 08:09:33;;;;;;;3.90;2.90;;;;;;;21.47;64.73;98327.43;225235;1272;22579;-72
2023/07/20 08:14:53;;;;;;;5.80;3.80;;;;;;;21.51;64.99;98324.20;225375;1278;25443;-72
2023/07/20 08:19:56;;;;;;;4.40;4.10;;;;;;;21.82;65.04;98319.54;225220;1275;23082;-72
2023/07/20 08:25:08;;;;;;;4.80;4.00;;;;;;;21.91;64.02;98321.79;225393;1270;22527;-72
2023/07/20 08:30:16;;;;;;;4.10;3.80;;;;;;;21.89;64.02;98319.58;225532;1280;23683;-72
2023/07/20 08:35:26;;;;;;;4.60;4.20;;;;;;;21.98;63.86;98319.24;225545;1262;22554;-73
2023/07/20 08:41:11;;;;;;;4.70;4.30;;;;;;;22.14;63.37;98318.67;225438;1275;22545;-72
2023/07/20 08:46:17;;;;;;;4.80;4.40;;;;;;;22.27;62.82;98322.30;225490;1273;22575;-72
2023/07/20 08:51:56;;;;;;;4.90;4.40;;;;;;;22.50;62.56;98328.02;225623;1275;22683;-72
2023/07/20 08:57:22;;;;;;;4.50;4.10;;;;;;;22.52;62.33;98331.89;225484;1275;22533;-72
2023/07/20 09:02:35;;;;;;;5.60;4.80;;;;;;;22.69;62.46;98330.30;225643;1280;22719;-72
2023/07/20 09:07:40;;;;;;;5.10;4.40;;;;;;;23.07;62.64;98331.27;225632;1275;22566;-72
2023/07/20 09:12:55;;;;;;;5.90;4.70;;;;;;;23.31;61.89;98324.80;225421;1276;22615;-73
2023/07/20 09:18:02;;;;;;;5.50;4.50;;;;;;;23.63;61.60;98330.54;225588;1262;22560;-71
2023/07/20 09:23:29;;;;;;;6.10;5.60;;;;;;;23.79;60.62;98340.27;225524;1276;22510;-71
2023/07/20 09:28:49;;;;;;;6.70;5.60;;;;;;;23.28;60.28;98343.05;225506;1267;22592;-73
2023/07/20 09:34:20;;;;;;;7.00;6.30;;;;;;;23.07;61.16;98344.06;225551;1277;23039;-72
2023/07/20 09:39:46;;;;;;;7.30;6.60;;;;;;;23.10;61.38;98329.33;225284;1274;22547;-72
2023/07/20 09:45:20;;;;;;;7.00;6.40;;;;;;;23.25;61.14;98325.16;225326;1274;22551;-73
2023/07/20 09:50:52;;;;;;;6.50;5.90;;;;;;;23.29;60.13;98323.42;225392;1259;22596;-72
2023/07/20 09:55:55;;;;;;;6.70;5.20;;;;;;;23.33;59.44;98321.66;225394;1277;22538;-74
2023/07/20 10:01:07;;;;;;;6.30;5.70;;;;;;;23.43;58.35;98329.56;225475;1279;22612;-72
2023/07/20 10:06:58;;;;;;;7.10;6.50;;;;;;;23.59;58.14;98333.98;225550;1269;22676;-71
2023/07/20 10:12:27;;;;;;;6.60;6.00;;;;;;;23.56;57.76;98335.30;225450;1272;22536;-72
2023/07/20 10:17:30;;;;;;;7.50;6.80;;;;;;;23.21;57.77;98330.21;225584;1273;25314;-71
2023/07/20 10:22:47;;;;;;;6.70;5.10;;;;;;;22.98;58.63;98330.97;225574;1275;25671;-71
2023/07/20 10:27:49;;;;;;;6.80;4.90;;;;;;;23.10;58.41;98327.54;225658;1273;22558;-74
2023/07/20 10:33:02;;;;;;;5.60;5.20;;;;;;;23.33;58.23;98323.11;225524;1275;22676;-73
2023/07/20 10:39:11;;;;;;;3.60;2.70;;;;;;;23.65;57.83;98323.30;225538;1269;22538;-73
2023/07/20 10:44:35;;;;;;;3.80;3.40;;;;;;;23.93;55.52;98316.34;225238;1275;22539;-72
2023/07/20 10:50:00;;;;;;;3.70;3.40;;;;;;;24.08;55.25;98312.70;225466;1262;22539;-72
2023/07/20 10:55:51;;;;;;;3.90;3.30;;;;;;;24.18;55.10;98304.66;225607;1280;22531;-72
2023/07/20 11:01:20;;;;;;;3.10;2.80;;;;;;;24.23;54.94;98302.58;225571;1262;23399;-72
2023/07/20 11:07:28;;;;;;;3.10;2.80;;;;;;;24.44;54.51;98296.38;225359;1281;22537;-71
2023/07/20 11:12:34;;;;;;;3.30;2.80;;;;;;;24.73;53.46;98301.77;225560;1278;22564;-71
2023/07/20 11:18:14;;;;;;;3.20;2.90;;;;;;;24.98;53.09;98297.17;225616;1257;22546;-73
2023/07/20 11:23:46;;;;;;;4.00;2.90;;;;;;;25.24;52.66;98294.92;225583;1258;22572;-72
2023/07/20 11:28:51;;;;;;;3.90;3.30;;;;;;;25.62;52.24;98298.80;225630;1262;22687;-72
2023/07/20 11:33:59;;;;;;;4.00;3.10;;;;;;;25.52;51.08;98299.00;225363;1273;22547;-71
2023/07/20 11:39:25;;;;;;;3.50;3.10;;;;;;;25.41;51.08;98292.84;225513;1265;22624;-71
2023/07/20 11:44:29;;;;;;;3.00;2.80;;;;;;;25.41;51.06;98284.80;225465;1279;22556;-71
2023/07/20 11:50:13;;;;;;;4.30;2.70;;;;;;;25.37;50.70;98278.82;225615;1273;22561;-79
2023/07/20 11:55:23;;;;;;;3.50;2.70;;;;;;;25.47;51.21;98279.56;225535;1268;26144;-72
2023/07/20 12:00:25;;;;;;;4.60;3.50;;;;;;;25.40;50.75;98282.16;225506;1262;22533;-73
2023/07/20 12:05:38;;;;;;;3.90;2.90;;;;;;;25.31;51.34;98276.38;225776;1278;22670;-72
2023/07/20 12:11:11;;;;;;;3.20;2.90;;;;;;;25.27;51.32;98269.83;225733;1269;23089;-72
2023/07/20 12:16:44;;;;;;;3.20;2.60;;;;;;;25.33;50.81;98276.06;225602;1275;22547;-72
2023/07/20 12:22:01;;;;;;;2.60;2.40;;;;;;;25.41;50.68;98261.05;225472;1278;22852;-71
2023/07/20 12:27:16;;;;;;;3.00;2.70;;;;;;;25.49;50.52;98261.55;225365;1278;22548;-74
2023/07/20 12:32:23;;;;;;;3.00;2.70;;;;;;;25.44;50.11;98267.86;225303;1280;22568;-74
2023/07/20 12:37:51;;;;;;;3.30;3.00;;;;;;;25.38;50.49;98264.41;225390;1276;24228;-72
2023/07/20 12:42:53;;;;;;;3.00;2.70;;;;;;;25.41;50.17;98265.32;225476;1279;22560;-72
2023/07/20 12:48:06;;;;;;;2.60;2.40;;;;;;;25.30;49.63;98267.46;225326;1274;23024;-72
2023/07/20 12:53:08;;;;;;;2.60;2.40;;;;;;;25.05;49.37;98264.47;225341;1278;25965;-73
2023/07/20 12:58:42;;;;;;;;;;;;;;;;;;;;;
2023/07/20 13:03:57;;;;;;;3.20;2.20;;;;;;;25.31;50.40;98256.99;225397;1273;22544;-72
2023/07/20 13:09:03;;;;;;;2.30;2.10;;;;;;;25.52;49.74;98247.02;225389;1262;22713;-71
2023/07/20 13:14:14;;;;;;;2.40;2.20;;;;;;;25.71;49.30;98246.25;225444;1262;22540;-72
2023/07/20 13:19:16;;;;;;;2.80;2.40;;;;;;;25.82;49.23;98250.39;225468;1262;22563;-73
2023/07/20 13:24:28;;;;;;;2.50;2.30;;;;;;;25.97;48.98;98240.98;225316;1273;22647;-72
2023/07/20 13:29:38;;;;;;;2.30;2.00;;;;;;;26.17;48.57;98225.94;225494;1276;22544;-72
2023/07/20 13:35:20;;;;;;;;;;;;;;;;;;;;;
2023/07/20 13:40:44;;;;;;;3.30;2.00;;;;;;;25.74;47.23;98223.83;225226;1266;22553;-73
2023/07/20 13:45:48;;;;;;;2.40;2.10;;;;;;;25.28;47.73;98236.05;225337;1272;22543;-71
2023/07/20 13:51:02;;;;;;;2.20;2.00;;;;;;;24.71;47.96;98262.08;225427;1278;22557;-72
2023/07/20 13:56:09;;;;;;;6.10;1.90;;;;;;;24.19;49.23;98296.50;225354;1269;23180;-73
2023/07/20 14:01:16;;;;;;;5.20;1.80;;;;;;;23.34;52.09;98296.95;225395;1276;22714;-73
2023/07/20 14:06:50;;;;;;;5.20;2.10;;;;;;;22.22;55.21;98279.72;225428;1280;23458;-72
2023/07/20 14:12:04;;;;;;;4.60;2.20;;;;;;;21.62;58.03;98278.42;225855;1278;22598;-73
2023/07/20 14:23:17;;;;;;;;;;;;;;;;;;;;;
2023/07/20 14:28:57;;;;;;;2.20;2.00;;;;;;;22.27;62.14;98309.85;225954;1278;22923;-73
2023/07/20 14:34:14;;;;;;;3.80;1.70;;;;;;;22.71;60.76;98305.67;225834;1280;25417;-72
2023/07/20 14:39:50;;;;;;;2.80;2.20;;;;;;;23.08;59.49;98298.82;225921;1281;22546;-73
2023/07/20 14:45:04;;;;;;;1.70;1.30;;;;;;;23.49;57.02;98297.96;225840;1278;24298;-72
2023/07/20 14:50:45;;;;;;;2.00;1.50;;;;;;;24.01;56.19;98295.89;225911;1258;22553;-72
2023/07/20 14:56:15;;;;;;;2.30;2.10;;;;;;;24.09;55.56;98298.60;225786;1280;22535;-72
2023/07/20 15:01:31;;;;;;;3.60;2.00;;;;;;;24.11;57.62;98303.27;225785;1280;22616;-72
2023/07/20 15:06:37;;;;;;;2.60;2.40;;;;;;;23.95;58.49;98302.29;225802;1280;22552;-72
2023/07/20 15:11:58;;;;;;;3.50;1.90;;;;;;;23.64;58.92;98305.08;225786;1281;24253;-72
2023/07/20 15:17:41;;;;;;;2.00;1.80;;;;;;;23.23;59.18;98318.01;225881;1281;22544;-72
2023/07/20 15:23:14;;;;;;;2.80;1.60;;;;;;;23.13;60.09;98325.16;225751;1278;22547;-72
2023/07/20 15:28:37;;;;;;;2.40;1.90;;;;;;;23.12;57.40;98326.07;225879;1280;22548;-72
2023/07/20 15:34:03;;;;;;;4.20;2.80;;;;;;;23.36;57.65;98317.98;225838;1278;22617;-72
2023/07/20 15:39:24;;;;;;;;;;;;;;;;;;;;;
2023/07/20 15:44:57;;;;;;;3.20;1.80;;;;;;;23.92;54.81;98309.76;225930;1280;22543;-72
2023/07/20 15:50:21;;;;;;;2.60;1.90;;;;;;;24.09;54.34;98309.52;225803;1280;24318;-72
2023/07/20 15:55:48;;;;;;;3.10;1.80;;;;;;;24.11;54.37;98318.45;225890;1279;22548;-72
2023/07/20 16:09:27;;;;;;;2.00;1.80;;;;;;;23.64;54.45;98323.20;219822;1304;544879;-73
2023/07/20 16:14:49;;;;;;;;;;;;;;;;;;;;;
2023/07/20 16:20:26;;;;;;;2.10;1.60;;;;;;;23.60;54.13;98326.00;220908;1285;5434708;-72
2023/07/20 16:26:00;;;;;;;3.70;1.70;;;;;;;23.77;54.09;98327.99;225128;1285;22590;-72
2023/07/20 16:31:36;;;;;;;2.00;1.70;;;;;;;23.82;53.98;98323.52;225112;1283;25280;-73
2023/07/20 16:37:14;;;;;;;2.40;1.70;;;;;;;23.67;53.59;98323.08;225052;1283;23173;-73
2023/07/20 16:42:28;;;;;;;2.40;1.80;;;;;;;23.50;53.44;98327.62;226662;1272;22547;-73
2023/07/20 16:48:26;;;;;;;;;;;;;;;;;;;;;
2023/07/20 16:53:39;;;;;;;2.50;1.80;;;;;;;23.27;53.88;98334.34;226899;1275;22619;-72
2023/07/20 17:05:12;;;;;;;1.30;1.20;;;;;;;23.25;53.58;98345.29;226635;1275;22607;-72
2023/07/20 17:11:18;;;;;;;2.00;1.30;;;;;;;23.31;53.44;98345.29;226841;1275;22530;-72
2023/07/20 17:17:20;;;;;;;1.20;1.20;;;;;;;23.35;52.96;98341.27;226646;1275;22520;-72
2023/07/20 17:23:03;;;;;;;2.00;1.60;;;;;;;23.38;52.99;98341.73;226712;1275;22606;-72
2023/07/20 17:28:35;;;;;;;1.90;1.80;;;;;;;24.17;53.27;98344.99;226583;1274;22530;-72
2023/07/20 17:33:59;;;;;;;2.00;1.90;;;;;;;25.37;51.90;98344.59;226613;1275;22579;-72
2023/07/20 17:39:06;;;;;;;3.30;2.00;;;;;;;25.57;50.64;98344.48;226709;1268;22540;-72
2023/07/20 17:44:11;;;;;;;1.80;1.70;;;;;;;25.11;50.03;98349.63;226648;1272;22541;-72
2023/07/20 17:49:50;;;;;;;;;;;;;;;;;;;;;
2023/07/20 17:55:04;;;;;;;3.80;1.70;;;;;;;23.82;51.39;98355.63;226672;1273;24268;-71
2023/07/20 18:00:59;;;;;;;2.30;1.90;;;;;;;23.25;52.29;98359.14;226567;1275;22540;-72
2023/07/20 18:06:34;;;;;;;1.60;1.50;;;;;;;22.76;53.27;98358.29;226641;1275;22641;-73
2023/07/20 18:11:50;;;;;;;1.80;1.70;;;;;;;22.37;54.57;98366.35;226631;1275;22541;-73
2023/07/20 18:17:07;;;;;;;2.20;1.60;;;;;;;22.09;55.77;98368.36;226668;1270;22533;-72
2023/07/20 18:22:46;;;;;;;2.60;2.00;;;;;;;21.77;56.66;98372.37;226639;1275;22594;-72
2023/07/20 18:28:18;;;;;;;;;;;;;;;21.47;57.48;98373.34;226404;1276;22519;-72
2023/07/20 18:33:59;;;;;;;2.30;2.10;;;;;;;21.17;58.53;98370.75;226583;1275;22568;-72
2023/07/20 18:39:35;;;;;;;;;;;;;;;;;;;;;
2023/07/20 18:45:11;;;;;;;2.20;2.00;;;;;;;20.65;60.05;98378.56;226741;1275;22533;-73
2023/07/20 18:51:25;;;;;;;3.00;2.20;;;;;;;20.36;60.64;98381.45;226595;1275;22539;-71
2023/07/20 19:03:49;;;;;;;;;;;;;;;;;;;;;
2023/07/20 19:09:18;;;;;;;2.20;1.80;;;;;;;19.66;62.43;98402.14;226531;1275;22561;-71
2023/07/20 19:14:53;;;;;;;2.80;2.60;;;;;;;19.48;62.98;98399.19;226646;1275;22546;-71
2023/07/20 19:20:58;;;;;;;2.70;2.10;;;;;;;19.29;63.42;98403.93;226624;1275;22537;-73
2023/07/20 19:26:40;;;;;;;;;;;;;;;;;;;;;
2023/07/20 19:32:15;;;;;;;3.10;2.50;;;;;;;18.93;65.20;98420.95;226753;1271;22533;-72
2023/07/20 19:38:16;;;;;;;4.70;3.40;;;;;;;18.73;66.18;98426.40;226783;1275;22542;-71
2023/07/20 19:49:32;;;;;;;3.50;3.20;;;;;;;18.42;67.17;98438.95;226573;1275;22540;-71
2023/07/20 19:56:01;;;;;;;;;;;;;;;;;;;;;
2023/07/20 20:08:14;;;;;;;;;;;;;;;;;;;;;
2023/07/20 20:13:57;;;;;;;5.60;4.40;;;;;;;18.06;69.47;98435.88;226460;1277;22552;-72
2023/07/20 20:20:04;;;;;;;4.20;3.80;;;;;;;18.01;70.02;98440.18;226290;1271;22543;-72
2023/07/20 20:32:18;;;;;;;4.30;3.60;;;;;;;18.03;70.79;98448.13;226382;1277;22548;-72
2023/07/20 20:37:48;;;;;;;;;;;;;;;;;;;;;
2023/07/20 20:44:25;;;;;;;4.40;3.20;;;;;;;18.07;71.25;98447.61;226403;1277;22536;-72
2023/07/20 20:50:19;;;;;;;;;;;;;;;;;;;;;
2023/07/20 20:56:18;;;;;;;4.10;3.70;;;;;;;17.99;71.90;98450.56;226303;1277;22556;-72
2023/07/20 21:02:23;;;;;;;;;;;;;;;;;;;;;
2023/07/20 21:08:35;;;;;;;7.40;6.20;;;;;;;17.95;71.85;98447.36;226443;1277;22557;-71
2023/07/20 21:14:24;;;;;;;6.20;5.20;;;;;;;17.93;71.80;98452.31;226534;1277;24271;-72
2023/07/20 21:20:07;;;;;;;4.80;4.30;;;;;;;17.91;71.76;98455.53;226517;1277;23617;-72
2023/07/20 21:26:52;;;;;;;5.70;4.40;;;;;;;17.89;71.62;98454.39;226438;1276;22536;-72
2023/07/20 21:32:23;;;;;;;;;;;;;;;;;;;;;
2023/07/20 21:38:08;;;;;;;4.80;3.90;;;;;;;17.87;71.80;98462.74;226461;1276;22571;-72
2023/07/20 21:44:25;;;;;;;5.70;4.50;;;;;;;17.83;71.97;98465.50;226186;1254;22536;-72
2023/07/20 21:50:05;;;;;;;;;;;;;;;;;;;;;
2023/07/20 21:56:21;;;;;;;5.60;4.50;;;;;;;17.72;72.44;98470.60;226493;1277;22558;-71
2023/07/20 22:02:10;;;;;;;5.10;4.60;;;;;;;17.63;72.82;98471.30;226464;1276;22530;-72
2023/07/20 22:26:31;;;;;;;;;;;;;;;;;;;;;
2023/07/20 22:39:10;;;;;;;5.50;3.80;;;;;;;16.83;74.76;98469.98;226344;1277;22927;-72
2023/07/20 22:45:22;;;;;;;5.60;4.00;;;;;;;16.72;75.04;98472.46;226407;1277;22593;-72
2023/07/20 22:51:15;;;;;;;4.90;4.40;;;;;;;16.59;75.64;98476.42;226523;1277;25336;-72
2023/07/20 23:03:57;;;;;;;5.20;3.80;;;;;;;16.39;76.18;98466.93;226513;1277;25214;-71
2023/07/20 23:10:24;;;;;;;4.30;3.60;;;;;;;16.37;76.24;98470.29;226419;1277;22730;-71
2023/07/20 23:22:43;;;;;;;4.10;3.70;;;;;;;16.33;76.21;98468.97;226379;1277;22543;-71
2023/07/20 23:35:07;;;;;;;4.40;4.00;;;;;;;16.07;76.20;98472.11;226169;1276;22536;-71
2023/07/20 23:41:58;;;;;;;5.10;4.50;;;;;;;15.96;76.66;98466.94;226410;1277;22557;-71
2023/07/20 23:48:35;;;;;;;5.20;3.40;;;;;;;15.85;76.86;98464.95;226105;1277;22528;-72
2023/07/20 23:54:46;;;;;;;;;;;;;;;;;;;;;
